Disclaimer

Please do not use the information listed here in-flight or in-navigation, as they are not provided to us by the airports but are provided by volunteers, so they might be outdated.

Search


Regions


Airport information page

No radio frequency information is available.

Airport informations:
Latitude: 21° 06' 50.62" N
Longitude: 072° 44' 30.45" E
Elevation: 16 feet - 5 meters
Operating hours: N/A
Operating agency: Civil government, landing fees and diplomatic clearance may be required
Timezone: UTC+5:30
Fuel: N/A

Runway information:
04/22 - 3600 x 100 feet< - >1097 x 30 meters

Recent METARs:
VASU 201530Z 01004KT 6000 NSC 26/14 Q1013
VASU 201630Z 36004KT 6000 NSC 25/14 Q1014
VASU 201630Z 36004KT 6000 NSC 25/14 Q1014

Airport on the map: